createdAt,value
2018-09-28T00:05:55.482Z,98882.13
2018-09-28T00:26:30.757Z,98868.89
2018-09-28T00:47:07.874Z,98856.45
2018-09-28T01:07:46.219Z,98834.41
2018-09-28T01:28:25.487Z,98828.02
2018-09-28T01:49:07.823Z,98824.71
2018-09-28T02:09:50.164Z,98806.89
2018-09-28T02:30:32.500Z,98796.87
2018-09-28T02:51:12.687Z,98795.53
2018-09-28T03:11:51.249Z,98789.85
2018-09-28T03:32:29.068Z,98780.77
2018-09-28T03:53:09.566Z,98794.67
2018-09-28T04:13:49.748Z,98785.86
2018-09-28T04:34:31.166Z,98793.55
2018-09-28T04:55:09.506Z,98803.39
2018-09-28T05:15:51.894Z,98806.92
2018-09-28T05:36:30.808Z,98827.03
2018-09-28T05:57:07.306Z,98855.63
2018-09-28T06:17:43.506Z,98871.20
2018-09-28T06:38:22.771Z,98883.22
2018-09-28T06:59:04.201Z,98899.13
2018-09-28T07:19:42.218Z,98904.25
2018-09-28T07:40:21.488Z,98898.08
2018-09-28T08:01:02.904Z,98909.86
2018-09-28T08:21:41.872Z,98927.61
2018-09-28T08:42:20.559Z,98935.56
2018-09-28T09:03:01.624Z,98917.53
2018-09-28T09:23:42.736Z,98904.66
2018-09-28T09:44:19.375Z,98886.59
2018-09-28T10:05:01.268Z,98875.44
2018-09-28T10:25:41.762Z,98869.95
2018-09-28T10:46:21.948Z,98867.12
2018-09-28T11:07:01.216Z,98875.00
2018-09-28T11:27:40.551Z,98865.65
2018-09-28T11:48:22.817Z,98865.10
2018-09-28T12:09:06.403Z,98848.81
2018-09-28T12:29:43.775Z,98832.35
2018-09-28T12:50:25.556Z,98831.95
2018-09-28T13:11:06.027Z,98828.72
2018-09-28T13:31:43.139Z,98828.72
2018-09-28T13:52:21.529Z,98854.38
2018-09-28T14:13:04.029Z,98882.40
2018-09-28T14:33:40.030Z,98916.44
2018-09-28T14:54:17.146Z,98970.30
2018-09-28T15:14:58.549Z,98975.00
2018-09-28T15:35:35.674Z,98979.42
2018-09-28T15:56:12.443Z,99006.55
2018-09-28T16:16:51.434Z,99046.19
2018-09-28T16:37:27.625Z,99085.48
2018-09-28T16:58:10.889Z,99104.75
2018-09-28T17:18:55.439Z,99124.19
2018-09-28T17:39:33.409Z,99155.94
2018-09-28T18:00:15.749Z,99187.41
2018-09-28T18:20:57.913Z,99208.74
2018-09-28T18:41:40.119Z,99216.14
2018-09-28T19:02:22.871Z,99237.97
2018-09-28T19:23:04.797Z,99254.91
2018-09-28T19:43:48.357Z,99258.38
2018-09-28T20:04:25.484Z,99295.34
2018-09-28T20:25:06.037Z,99314.85
2018-09-28T20:45:47.075Z,99322.89
2018-09-28T21:06:29.425Z,99339.04
2018-09-28T21:27:04.978Z,99334.22
2018-09-28T21:47:41.805Z,99343.52
2018-09-28T22:08:19.226Z,99352.25
2018-09-28T22:28:58.186Z,99370.80
2018-09-28T22:49:40.525Z,99370.70
2018-09-28T23:10:17.026Z,99369.89
2018-09-28T23:30:52.296Z,99376.08
2018-09-28T23:51:30.329Z,99375.83
